AirNav   Free SoundLink Mini II speaker
 
 421 users online  

4KY8 Shady Acres Airport
Shepherdsville, Kentucky, USA

GOING TO SHEPHERDSVILLE?


FAA INFORMATION EFFECTIVE 26 MARCH 2020

Location

FAA Identifier: 4KY8
Lat/Long: 37-56-45.0000N 085-41-49.0000W
37-56.750000N 085-41.816667W
37.9458333,-85.6969444
(estimated)
Elevation: 450 ft. / 137 m (estimated)
Variation: 03W (2000)
From city: 2 miles S of SHEPHERDSVILLE, KY
Time zone: UTC -4 (UTC -5 during Standard Time)
Zip code: 40165

Airport Operations

Airport use: Private use. Permission required prior to landing
Activation date: 01/2001
Control tower: no
ARTCC: INDIANAPOLIS CENTER
FSS: LOUISVILLE FLIGHT SERVICE STATION
Attendance: UNATNDD
Wind indicator: yes
Segmented circle: no

Airport Communications

WX AWOS-3 at BRY (12 nm SE): 119.925 (502-348-1867)
WX ASOS at SDF (14 nm N): PHONE 502-367-1492
WX ASOS at LOU (17 nm N): PHONE 502-473-0693
WX AWOS-3 at EKX (19 nm SW): 121.025 (270-763-6433)

Nearby radio navigation aids

VOR radial/distance  VOR name  Freq  Var
IIUr210/11.0LOUISVILLE VORTAC114.8001E
FTKr081/13.2FORT KNOX VOR/DME109.6001W
EWOr356/18.9NEW HOPE VOR/DME110.8001E
MYSr084/(26.1)MYSTIC VOR108.2001W
FFTr252/(39.9)FRANKFORT VOR109.4003W

 
NDB name  Hdg/Dist  Freq  Var  ID
LAANG198/12.341404WLK .-.. -.-
GODMAN096/13.339603WGOI --. --- ..

Airport Services

Runway Information

Runway 15/33

Dimensions: 2100 x 85 ft. / 640 x 26 m
Surface: turf, in good condition
RUNWAY 15  RUNWAY 33
Traffic pattern: leftleft

Airport Ownership and Management from official FAA records

Ownership: Privately-owned
Owner: RONALD A. PATRICK
3524 SOUTH PRESTON HWY
SHEPHERDSVILLE, KY 40165
Phone 502-921-2957
Manager: RONALD A. PATRICK
3524 SOUTH PRESTON HWY
SHEPHERDSVILLE, KY 40165
Phone 502-921-2957

Airport Operational Statistics

Aircraft based on the field: 3
Single engine airplanes: 2
Multi engine airplanes: 1
    

Additional Remarks

500 FT TOWER 1 NM NORTH & 510 FT TOWER 1.5 NM NORTHEAST OF ARPT.
FOR CD CTC LOUISVILLE APCH AT 502-375-7499

Instrument Procedures

There are no published instrument procedures at 4KY8.

Some nearby airports with instrument procedures:

KBRY - Samuels Field Airport (12 nm SE)
KFTK - Godman Army Airfield (13 nm W)
KSDF - Louisville Muhammad Ali International Airport (14 nm N)
KLOU - Bowman Field Airport (17 nm N)
KEKX - Addington Field Airport (19 nm SW)
 
Loc | Ops | Rwys | IFR | FBO | Links
Com | Nav | Svcs | Stats | Notes
Area around 4KY8 (Shady Acres Airport)
 
Road maps at: MapQuest Bing Google
 
Aerial photo
No photo
 
Sectional chart

 
Airport distance calculator
Flying to Shady Acres Airport? Find the distance to fly.

From to 4KY8

Sunrise and sunset
Times for 10-Apr-2020
 Local
(UTC-4)
 Zulu
(UTC)
Morning civil twilight06:4710:47
Sunrise07:1411:14
Sunset20:1400:14
Evening civil twilight20:4100:41

Current date and time
Zulu (UTC)  10-Apr-2020 06:08:04
Local (UTC-4)  10-Apr-2020 02:08:04
 
METAR
KBRY 
12nm SE 
100555Z AUTO 32006G16KT 10SM SCT065 04/M03 A2994 RMK AO1
KFTK 
13nm W 
100556Z AUTO 32009KT 10SM SCT043 BKN050 BKN075 05/M04 A2996 RMK AO2 DZE0455 SLP150 P0000 60000 T00491041 10113 20049 52037
KSDF 
14nm N 
100556Z 31010G18KT 10SM SCT090 06/M03 A2995 RMK AO2 SLP143 60000 T00561033 10122 20050 51030
KEKX 
16nm SW 
100555Z AUTO 33008KT 300V360 10SM SCT035 BKN070 OVC090 05/M04 A2995 RMK AO2 T00501036 10118 20050 401500050
KLOU 
16nm N 
100553Z 31013G23KT 10SM SCT085 05/M04 A2995 RMK AO2 SLP141 60000 T00501039 10122 20044 51029
TAF
KFTK 
13nm W 
100500Z 1005/1107 32015G25KT 9999 BKN050 531002 QNH2980INS TEMPO 1005/1007 29020G35KT 520003 BECMG 1014/1015 29020G25KT 9999 SKC QNH3006INS BECMG 1017/1018 28010G15KT 9999 SKC QNH3003INS BECMG 1023/1024 26006KT 9999 SKC QNH3004INS TX10/1020Z TN01/1011Z
KSDF 
14nm N 
100520Z 1006/1112 31008G18KT P6SM BKN040 OVC100 FM100900 31012KT P6SM FEW250 FM101500 29015G22KT P6SM SKC
NOTAMs
Click for the latest NOTAMs
NOTAMs are issued by the DoD/FAA and will open in a separate window not controlled by AirNav.

 

 
 

Would you like to see your business listed on this page?

 If your business provides an interesting product or service to pilots, flight crews, aircraft, or users of the Shady Acres Airport, you should consider listing it here.  To start the listing process, click on the button below
 
Add a business
 

Other Pages about Shady Acres Airport

Update a link
 
Copyright © AirNav, LLC. All rights reserved. Privacy Policy  Contact